Time;durP1;ratioP1;P1;durP2;ratioP2;P2;SDS_P1;SDS_P2;PMS_P1;PMS_P2;Temp;Humidity;BMP_temperature;BMP_pressure;BME280_temperature;BME280_humidity;BME280_pressure;Samples;Min_cycle;Max_cycle;Signal;HPM_P1;HPM_P2
2022/06/10 00:01:13;;;;;;;5.30;2.70;;;20.40;57.30;;;;;;4921793;29;20028;-88
2022/06/10 00:03:39;;;;;;;5.80;3.10;;;20.40;57.40;;;;;;4937676;29;20027;-88
2022/06/10 00:06:07;;;;;;;4.47;2.60;;;20.30;57.40;;;;;;4921931;29;20031;-88
2022/06/10 00:08:41;;;;;;;4.60;2.25;;;20.40;57.50;;;;;;4921410;29;20023;-89
2022/06/10 00:11:08;;;;;;;4.38;2.10;;;20.30;57.50;;;;;;4937660;29;20035;-88
2022/06/10 00:13:37;;;;;;;6.28;2.55;;;20.30;57.50;;;;;;4921640;29;20023;-88
2022/06/10 00:16:04;;;;;;;4.13;2.45;;;20.20;57.50;;;;;;4937565;29;20487;-88
2022/06/10 00:18:31;;;;;;;4.25;2.13;;;20.20;57.60;;;;;;4939062;28;20080;-88
2022/06/10 00:20:59;;;;;;;4.05;2.25;;;20.20;57.60;;;;;;4937860;29;20055;-88
2022/06/10 00:23:25;;;;;;;3.35;1.90;;;20.20;57.70;;;;;;4939156;29;20038;-88
2022/06/10 00:25:51;;;;;;;3.83;1.95;;;20.10;57.70;;;;;;4938291;29;20028;-89
2022/06/10 00:28:17;;;;;;;3.25;1.83;;;20.10;57.70;;;;;;4924168;29;20480;-89
2022/06/10 00:30:43;;;;;;;2.95;2.05;;;20.00;57.70;;;;;;4922802;29;20417;-88
2022/06/10 00:33:09;;;;;;;2.97;1.80;;;20.00;57.80;;;;;;4938725;29;20027;-88
2022/06/10 00:35:35;;;;;;;2.97;1.75;;;20.00;57.90;;;;;;4938037;29;20034;-88
2022/06/10 00:38:02;;;;;;;2.97;1.67;;;20.00;57.90;;;;;;4922397;29;20059;-89
2022/06/10 00:40:32;;;;;;;2.50;1.50;;;19.90;57.90;;;;;;4937183;29;20032;-88
2022/06/10 00:42:58;;;;;;;2.25;1.50;;;19.90;58.00;;;;;;4938373;29;20024;-88
2022/06/10 00:46:01;;;;;;;2.35;1.55;;;19.90;58.00;;;;;;4938312;29;20059;-88
2022/06/10 00:48:33;;;;;;;2.90;1.58;;;19.80;58.10;;;;;;4953536;29;20024;-88
2022/06/10 00:51:21;;;;;;;3.50;1.48;;;19.80;58.00;;;;;;4937077;29;20122;-87
2022/06/10 00:53:52;;;;;;;2.00;1.40;;;19.80;58.10;;;;;;4938612;29;20031;-87
2022/06/10 00:56:22;;;;;;;2.63;1.58;;;19.80;58.10;;;;;;4941092;29;20019;-88
2022/06/10 00:58:58;;;;;;;2.60;1.60;;;19.70;58.20;;;;;;4942486;29;20444;-89
2022/06/10 01:01:26;;;;;;;2.70;1.40;;;19.70;58.20;;;;;;4941287;29;20035;-87
2022/06/10 01:03:53;;;;;;;2.15;1.50;;;19.60;58.20;;;;;;4940327;29;20032;-87
2022/06/10 01:06:19;;;;;;;2.38;1.30;;;19.60;58.30;;;;;;4940461;29;20079;-87
2022/06/10 01:08:46;;;;;;;2.25;1.52;;;19.60;58.30;;;;;;4942278;28;20028;-88
2022/06/10 01:11:19;;;;;;;3.00;1.50;;;19.60;58.30;;;;;;4939897;29;20032;-88
2022/06/10 01:14:06;;;;;;;2.88;1.55;;;19.50;58.40;;;;;;4956368;29;20028;-87
2022/06/10 01:16:47;;;;;;;2.85;1.63;;;19.50;58.50;;;;;;4941133;29;20027;-87
2022/06/10 01:19:37;;;;;;;2.70;1.50;;;19.50;58.40;;;;;;4941517;29;20024;-88
2022/06/10 01:22:35;;;;;;;2.22;1.45;;;19.40;58.50;;;;;;4956585;29;20128;-88
2022/06/10 01:25:17;;;;;;;2.33;1.50;;;19.30;58.50;;;;;;4942069;29;20341;-88
2022/06/10 01:28:17;;;;;;;3.08;1.60;;;19.40;58.50;;;;;;4940695;29;20028;-88
2022/06/10 01:30:54;;;;;;;1.75;1.50;;;19.30;58.60;;;;;;4941185;29;20055;-88
2022/06/10 01:33:44;;;;;;;2.03;1.30;;;19.30;58.60;;;;;;4956439;29;20067;-88
2022/06/10 01:36:44;;;;;;;2.13;1.10;;;19.20;58.70;;;;;;4941073;29;20552;-88
2022/06/10 01:39:26;;;;;;;2.80;1.58;;;19.20;58.70;;;;;;4939748;29;20024;-87
2022/06/10 01:42:30;;;;;;;1.73;1.30;;;19.10;58.70;;;;;;4955557;29;20031;-88
2022/06/10 01:45:16;;;;;;;1.55;1.30;;;19.10;58.80;;;;;;4956180;29;20497;-88
2022/06/10 01:47:55;;;;;;;1.50;1.38;;;19.10;58.80;;;;;;4940323;29;20059;-89
2022/06/10 01:50:29;;;;;;;2.05;1.30;;;19.00;58.80;;;;;;4940150;29;20034;-85
2022/06/10 01:53:07;;;;;;;2.50;1.48;;;19.00;58.90;;;;;;4956147;29;20031;-89
2022/06/10 01:55:35;;;;;;;1.73;1.15;;;19.00;58.90;;;;;;4939605;29;20028;-89
2022/06/10 01:58:07;;;;;;;1.30;1.15;;;18.90;58.90;;;;;;4940697;29;20023;-89
2022/06/10 02:00:36;;;;;;;1.27;1.17;;;18.90;58.90;;;;;;4940914;29;20034;-89
2022/06/10 02:03:31;;;;;;;2.20;1.42;;;18.90;58.90;;;;;;4939632;29;20031;-87
2022/06/10 02:06:14;;;;;;;1.88;1.30;;;18.90;59.10;;;;;;4938274;29;20042;-88
2022/06/10 02:08:46;;;;;;;1.60;1.20;;;18.80;59.00;;;;;;4940906;29;20111;-89
2022/06/10 02:11:18;;;;;;;2.25;1.33;;;18.80;59.00;;;;;;4940738;29;20028;-89
2022/06/10 02:14:09;;;;;;;1.67;1.40;;;18.80;59.10;;;;;;4939938;29;20487;-89
2022/06/10 02:16:40;;;;;;;1.65;1.23;;;18.80;59.20;;;;;;4940516;29;20062;-89
2022/06/10 02:19:20;;;;;;;2.17;1.58;;;18.70;59.10;;;;;;4939734;29;20208;-89
2022/06/10 02:21:52;;;;;;;2.03;1.40;;;18.70;59.20;;;;;;4955080;29;20036;-89
2022/06/10 02:24:25;;;;;;;1.90;1.40;;;18.70;59.20;;;;;;4940134;29;20023;-90
2022/06/10 02:26:52;;;;;;;2.08;1.20;;;18.70;59.20;;;;;;4939394;29;20055;-89
2022/06/10 02:29:29;;;;;;;1.83;1.40;;;18.60;59.20;;;;;;4940531;28;20073;-89
2022/06/10 02:31:58;;;;;;;1.83;1.48;;;18.60;59.30;;;;;;4942613;29;20027;-89
2022/06/10 02:34:26;;;;;;;2.13;1.38;;;18.60;59.30;;;;;;4941346;28;20091;-89
2022/06/10 02:37:04;;;;;;;1.50;1.40;;;18.60;59.30;;;;;;4940518;29;20031;-89
2022/06/10 02:39:48;;;;;;;1.73;1.25;;;18.50;59.30;;;;;;4940151;29;20024;-89
2022/06/10 02:42:42;;;;;;;2.92;1.40;;;18.50;59.40;;;;;;4939350;29;20063;-89
2022/06/10 02:45:30;;;;;;;2.42;1.60;;;18.50;59.40;;;;;;4939687;29;20053;-89
2022/06/10 02:48:25;;;;;;;2.28;1.30;;;18.40;59.40;;;;;;4940006;29;20031;-89
2022/06/10 02:50:51;;;;;;;1.58;1.30;;;18.40;59.50;;;;;;4940653;29;20031;-89
2022/06/10 02:53:17;;;;;;;1.55;1.30;;;18.40;59.40;;;;;;4922995;29;20031;-89
2022/06/10 02:55:43;;;;;;;1.85;1.60;;;18.40;59.50;;;;;;4923244;29;20056;-88
2022/06/10 03:01:36;;;;;;;2.63;1.37;;;18.30;59.60;;;;;;4955417;29;20035;-89
2022/06/10 03:04:15;;;;;;;1.92;1.30;;;18.30;59.80;;;;;;4940514;29;20051;-89
2022/06/10 03:06:51;;;;;;;2.05;1.50;;;18.30;59.70;;;;;;4939947;29;20028;-89
2022/06/10 03:09:42;;;;;;;2.05;1.40;;;18.30;59.80;;;;;;4955944;29;20114;-89
2022/06/10 03:12:17;;;;;;;1.77;1.35;;;18.20;60.40;;;;;;4939014;29;20059;-89
2022/06/10 03:15:11;;;;;;;3.00;1.55;;;18.20;59.80;;;;;;4956376;29;20030;-89
2022/06/10 03:18:10;;;;;;;2.38;1.52;;;18.20;60.00;;;;;;4939979;29;20070;-89
2022/06/10 03:21:05;;;;;;;1.42;1.10;;;18.20;60.00;;;;;;4941224;29;20031;-89
2022/06/10 03:23:41;;;;;;;1.60;1.20;;;18.10;60.00;;;;;;4944105;29;20024;-89
2022/06/10 03:26:22;;;;;;;1.17;1.10;;;18.10;60.00;;;;;;4944769;29;20539;-88
2022/06/10 03:28:51;;;;;;;1.58;1.10;;;18.10;60.30;;;;;;4950567;29;20150;-87
2022/06/10 03:31:34;;;;;;;1.30;1.10;;;18.10;60.20;;;;;;4952998;29;20473;-81
2022/06/10 03:34:02;;;;;;;2.55;1.33;;;18.00;60.30;;;;;;4955471;29;20035;-85
2022/06/10 03:36:31;;;;;;;1.30;1.20;;;18.10;60.30;;;;;;4973813;29;20035;-84
2022/06/10 03:38:58;;;;;;;2.05;1.42;;;18.00;60.40;;;;;;4954084;29;20461;-87
2022/06/10 03:41:30;;;;;;;4.65;1.25;;;18.10;60.40;;;;;;4940451;29;20434;-87
2022/06/10 03:43:57;;;;;;;2.53;1.30;;;18.10;60.50;;;;;;4940592;29;20038;-88
2022/06/10 03:46:26;;;;;;;1.40;1.17;;;18.10;60.50;;;;;;4939809;28;20031;-88
2022/06/10 03:48:53;;;;;;;2.80;1.20;;;18.00;60.60;;;;;;4938406;29;20031;-88
2022/06/10 03:51:20;;;;;;;1.45;1.30;;;18.00;60.50;;;;;;4922400;29;20031;-87
2022/06/10 03:53:47;;;;;;;2.35;1.40;;;18.10;60.60;;;;;;4922034;29;20094;-87
2022/06/10 03:56:19;;;;;;;1.65;1.23;;;18.00;60.60;;;;;;4937391;29;20137;-88
2022/06/10 03:58:45;;;;;;;1.95;1.20;;;18.00;60.60;;;;;;4937970;29;20082;-86
2022/06/10 04:01:11;;;;;;;1.52;1.30;;;18.00;60.60;;;;;;4937270;29;20409;-89
2022/06/10 04:03:37;;;;;;;2.05;1.50;;;18.00;60.70;;;;;;4936958;29;20069;-88
2022/06/10 04:06:03;;;;;;;1.83;1.27;;;18.00;60.70;;;;;;4921192;29;20475;-88
2022/06/10 04:08:29;;;;;;;1.77;1.30;;;18.00;60.70;;;;;;4938113;29;20190;-88
2022/06/10 04:10:55;;;;;;;1.65;1.10;;;18.00;60.70;;;;;;4936849;29;20059;-88
2022/06/10 04:13:21;;;;;;;1.92;1.30;;;18.00;60.80;;;;;;4921941;29;20091;-88
2022/06/10 04:15:47;;;;;;;2.58;1.50;;;18.00;60.80;;;;;;4921609;29;20046;-88
2022/06/10 04:18:13;;;;;;;1.77;1.17;;;18.00;61.50;;;;;;4938490;29;20026;-88
2022/06/10 04:20:40;;;;;;;1.60;1.08;;;18.00;60.90;;;;;;4921623;29;20504;-88
2022/06/10 04:23:07;;;;;;;2.15;1.17;;;18.00;60.90;;;;;;4937986;29;20056;-88
2022/06/10 04:25:35;;;;;;;1.70;1.30;;;18.00;61.00;;;;;;4954433;28;20043;-89
2022/06/10 04:28:01;;;;;;;1.60;1.30;;;18.00;61.00;;;;;;4921948;29;20028;-83
2022/06/10 04:30:34;;;;;;;1.48;1.30;;;18.00;61.00;;;;;;4938391;29;20059;-88
2022/06/10 04:33:01;;;;;;;3.35;1.50;;;18.00;61.10;;;;;;4937367;29;20024;-89
2022/06/10 04:35:28;;;;;;;1.70;1.13;;;18.00;61.10;;;;;;4937806;28;20483;-88
2022/06/10 04:37:55;;;;;;;2.22;1.13;;;18.00;61.20;;;;;;4938940;29;20035;-86
2022/06/10 04:40:24;;;;;;;1.98;1.35;;;18.00;61.20;;;;;;4938101;28;20024;-84
2022/06/10 04:42:51;;;;;;;1.75;1.27;;;18.00;61.80;;;;;;4936184;29;20028;-85
2022/06/10 04:45:21;;;;;;;2.30;1.40;;;18.00;61.20;;;;;;4920533;29;20035;-85
2022/06/10 04:47:46;;;;;;;1.40;1.10;;;18.00;61.20;;;;;;4935768;29;20035;-84
2022/06/10 04:50:14;;;;;;;2.33;1.10;;;18.00;61.20;;;;;;4935332;29;20035;-84
2022/06/10 04:52:41;;;;;;;2.72;1.30;;;18.00;61.20;;;;;;4936385;29;20491;-84
2022/06/10 04:55:08;;;;;;;2.88;1.50;;;18.00;61.20;;;;;;4951691;29;20477;-85
2022/06/10 04:57:34;;;;;;;1.92;1.20;;;18.00;61.30;;;;;;4936986;29;20349;-84
2022/06/10 05:00:01;;;;;;;1.70;1.20;;;18.00;61.30;;;;;;4919796;29;20040;-85
2022/06/10 05:02:26;;;;;;;2.08;1.20;;;18.00;61.30;;;;;;4936765;29;20104;-85
2022/06/10 05:04:52;;;;;;;1.63;1.10;;;18.00;61.40;;;;;;4919956;29;20062;-85
2022/06/10 05:07:18;;;;;;;1.83;1.20;;;18.00;61.40;;;;;;4920368;29;20083;-85
2022/06/10 05:09:43;;;;;;;1.08;1.00;;;18.00;61.40;;;;;;4919630;29;20133;-85
2022/06/10 05:12:09;;;;;;;1.92;1.30;;;18.00;61.40;;;;;;4936570;29;20036;-85
2022/06/10 05:14:36;;;;;;;1.20;1.10;;;18.00;61.40;;;;;;4920541;29;20028;-85
2022/06/10 05:17:03;;;;;;;3.00;1.23;;;18.10;61.50;;;;;;4919724;29;20079;-83
2022/06/10 05:19:29;;;;;;;1.90;1.20;;;18.00;61.50;;;;;;4935614;29;20027;-85
2022/06/10 05:21:56;;;;;;;2.17;1.40;;;18.00;61.50;;;;;;4952188;28;20063;-86
2022/06/10 05:24:22;;;;;;;1.88;1.20;;;18.00;61.60;;;;;;4936722;29;20071;-86
2022/06/10 05:26:48;;;;;;;1.30;1.10;;;18.00;61.60;;;;;;4920630;29;20091;-90
2022/06/10 05:29:17;;;;;;;1.17;0.90;;;18.00;61.60;;;;;;4936185;29;20138;-87
2022/06/10 05:31:43;;;;;;;1.45;1.17;;;18.10;61.70;;;;;;4920169;29;20059;-86
2022/06/10 05:36:53;;;;;;;1.15;1.05;;;18.00;61.70;;;;;;4923723;29;20095;-86
2022/06/10 05:39:19;;;;;;;1.67;1.10;;;18.10;61.70;;;;;;4921737;29;20031;-86
2022/06/10 05:44:29;;;;;;;1.88;1.02;;;18.10;61.80;;;;;;4941546;29;20035;-87
2022/06/10 05:46:55;;;;;;;1.35;1.15;;;18.10;61.80;;;;;;4940477;29;20023;-88
2022/06/10 05:49:22;;;;;;;1.15;1.05;;;18.10;61.80;;;;;;4939627;29;20034;-82
2022/06/10 05:51:48;;;;;;;1.92;1.30;;;18.10;61.90;;;;;;4939335;29;20455;-87
2022/06/10 05:54:16;;;;;;;2.40;1.23;;;18.10;61.90;;;;;;4939893;29;20036;-79
2022/06/10 05:56:43;;;;;;;1.05;0.95;;;18.10;62.00;;;;;;4939164;29;20016;-85
2022/06/10 05:59:10;;;;;;;1.55;1.20;;;18.20;62.00;;;;;;4924130;29;20032;-88
2022/06/10 06:01:36;;;;;;;1.67;1.30;;;18.10;62.70;;;;;;4923725;29;20177;-88
2022/06/10 06:04:02;;;;;;;1.27;1.13;;;18.20;62.10;;;;;;4908426;29;20405;-89
2022/06/10 06:06:28;;;;;;;1.33;1.10;;;18.20;62.10;;;;;;4924265;29;20031;-88
2022/06/10 06:08:54;;;;;;;1.23;1.13;;;18.20;62.10;;;;;;4923001;29;20035;-89
2022/06/10 06:11:20;;;;;;;1.70;1.30;;;18.20;62.10;;;;;;4923777;29;20067;-87
2022/06/10 06:13:46;;;;;;;1.48;1.17;;;18.20;62.10;;;;;;4939337;29;20103;-89
2022/06/10 06:16:14;;;;;;;1.55;1.20;;;18.30;62.10;;;;;;4924276;29;20099;-84
2022/06/10 06:18:41;;;;;;;2.30;1.30;;;18.30;62.20;;;;;;4923461;29;20024;-86
2022/06/10 06:21:07;;;;;;;1.35;1.05;;;18.30;62.10;;;;;;4938761;29;20043;-87
2022/06/10 06:23:33;;;;;;;2.47;1.20;;;18.30;62.10;;;;;;4939246;29;20083;-88
2022/06/10 06:25:59;;;;;;;1.65;1.30;;;18.30;62.20;;;;;;4939237;29;20032;-87
2022/06/10 06:28:26;;;;;;;1.20;1.10;;;18.30;62.20;;;;;;4938720;29;20059;-85
2022/06/10 06:30:51;;;;;;;1.63;1.13;;;18.30;62.20;;;;;;4955394;29;20062;-88
2022/06/10 06:33:17;;;;;;;2.10;1.42;;;18.40;62.30;;;;;;4924013;29;20357;-87
2022/06/10 06:35:50;;;;;;;1.42;1.10;;;18.40;62.30;;;;;;4938361;29;20047;-88
2022/06/10 06:38:17;;;;;;;2.42;1.55;;;18.40;62.30;;;;;;4939103;29;20047;-87
2022/06/10 06:40:43;;;;;;;2.08;1.10;;;18.50;62.30;;;;;;4938580;29;20139;-89
2022/06/10 06:43:10;;;;;;;1.38;1.08;;;18.50;62.30;;;;;;4922803;29;20421;-87
2022/06/10 06:45:36;;;;;;;1.55;1.20;;;18.50;63.00;;;;;;4938795;29;20030;-84
2022/06/10 06:48:04;;;;;;;2.08;1.20;;;18.50;62.30;;;;;;4923176;29;20030;-84
2022/06/10 06:50:32;;;;;;;1.65;1.10;;;18.50;62.30;;;;;;4938233;29;20031;-83
2022/06/10 06:52:57;;;;;;;1.80;1.00;;;18.60;62.30;;;;;;4938246;29;20378;-83
2022/06/10 06:55:23;;;;;;;2.10;1.30;;;18.60;62.30;;;;;;4921699;29;20087;-81
2022/06/10 06:57:49;;;;;;;3.35;1.55;;;18.60;62.30;;;;;;4953862;29;20106;-82
2022/06/10 07:00:16;;;;;;;1.85;1.08;;;18.60;62.20;;;;;;4938327;29;20393;-83
2022/06/10 07:02:42;;;;;;;1.30;1.20;;;18.70;62.30;;;;;;4953033;29;20063;-82
2022/06/10 07:05:11;;;;;;;1.95;1.13;;;18.70;62.20;;;;;;4921111;29;20027;-82
2022/06/10 07:07:37;;;;;;;1.65;1.20;;;18.70;62.30;;;;;;4938386;29;20035;-82
2022/06/10 07:10:03;;;;;;;2.85;1.10;;;18.70;62.20;;;;;;4938177;29;20368;-83
2022/06/10 07:12:29;;;;;;;1.67;1.10;;;18.80;62.20;;;;;;4937500;29;20035;-81
2022/06/10 07:14:54;;;;;;;1.63;1.17;;;18.80;62.20;;;;;;4920802;29;20028;-82
2022/06/10 07:17:20;;;;;;;1.75;1.25;;;18.90;62.20;;;;;;4937887;29;20028;-82
2022/06/10 07:19:51;;;;;;;1.75;1.00;;;18.90;62.20;;;;;;4938071;29;20024;-81
2022/06/10 07:22:17;;;;;;;1.75;1.20;;;18.90;62.10;;;;;;4938796;29;20044;-82
2022/06/10 07:24:43;;;;;;;1.65;1.00;;;18.90;62.10;;;;;;4921518;29;20507;-81
2022/06/10 07:27:10;;;;;;;1.50;1.38;;;18.90;62.10;;;;;;4937114;29;20424;-81
2022/06/10 07:29:36;;;;;;;1.45;1.05;;;18.90;62.10;;;;;;4954020;28;20043;-83
2022/06/10 07:32:02;;;;;;;1.35;1.10;;;19.00;62.10;;;;;;4922483;29;20453;-81
2022/06/10 07:34:28;;;;;;;2.13;1.30;;;19.00;62.00;;;;;;4938082;29;20055;-81
2022/06/10 07:36:54;;;;;;;1.80;1.00;;;19.00;62.00;;;;;;4921940;29;20096;-81
2022/06/10 07:39:20;;;;;;;2.92;1.20;;;19.00;62.00;;;;;;4937895;29;20024;-82
2022/06/10 07:42:00;;;;;;;1.83;1.27;;;19.10;62.00;;;;;;4921524;29;20062;-82
2022/06/10 07:44:28;;;;;;;1.40;1.05;;;19.10;61.90;;;;;;4937878;29;20059;-83
2022/06/10 07:46:56;;;;;;;1.30;1.20;;;19.10;61.90;;;;;;4939734;29;20026;-80
2022/06/10 07:49:22;;;;;;;1.88;1.30;;;19.10;61.90;;;;;;4954886;29;20075;-81
2022/06/10 07:51:48;;;;;;;1.70;1.00;;;19.20;61.90;;;;;;4956637;29;20472;-81
2022/06/10 07:54:14;;;;;;;0.95;0.93;;;19.10;61.80;;;;;;4947288;29;20032;-79
2022/06/10 07:56:40;;;;;;;1.73;1.10;;;19.20;61.80;;;;;;4948358;29;20088;-78
2022/06/10 07:59:07;;;;;;;1.17;1.02;;;19.20;61.80;;;;;;4949354;29;20026;-81
2022/06/10 08:01:33;;;;;;;2.30;1.38;;;19.30;61.90;;;;;;4952010;29;20042;-79
2022/06/10 08:04:00;;;;;;;2.10;1.20;;;19.30;61.90;;;;;;4951251;29;20032;-80
2022/06/10 08:06:28;;;;;;;1.85;1.20;;;19.30;61.90;;;;;;4949952;29;20035;-81
2022/06/10 08:08:55;;;;;;;1.95;1.20;;;19.30;61.90;;;;;;4946885;28;20020;-81
2022/06/10 08:11:21;;;;;;;1.35;1.08;;;19.40;61.90;;;;;;4941129;29;20127;-81
2022/06/10 08:13:47;;;;;;;2.22;1.20;;;19.40;61.90;;;;;;4936122;29;20059;-81
2022/06/10 08:16:14;;;;;;;1.85;1.27;;;19.40;61.90;;;;;;4938002;29;20545;-81
2022/06/10 08:18:40;;;;;;;1.30;1.20;;;19.50;62.00;;;;;;4920929;29;20512;-82
2022/06/10 08:23:50;;;;;;;3.22;1.20;;;19.60;62.00;;;;;;4951703;29;20040;-82
2022/06/10 08:26:20;;;;;;;1.20;1.10;;;19.60;61.80;;;;;;4935687;29;20031;-81
2022/06/10 08:28:47;;;;;;;1.60;1.08;;;19.70;61.90;;;;;;4935886;29;20040;-81
2022/06/10 08:31:13;;;;;;;1.80;1.15;;;19.70;61.90;;;;;;4937179;29;20089;-81
2022/06/10 08:33:40;;;;;;;1.67;1.10;;;19.70;61.80;;;;;;4919992;29;20501;-80
2022/06/10 08:36:06;;;;;;;1.83;1.15;;;19.80;61.90;;;;;;4936561;28;20027;-81
2022/06/10 08:38:32;;;;;;;1.17;1.08;;;19.90;61.90;;;;;;4935778;29;20032;-81
2022/06/10 08:41:06;;;;;;;1.83;1.23;;;19.90;61.80;;;;;;4935166;29;20024;-82
2022/06/10 08:43:41;;;;;;;1.77;1.10;;;20.00;61.90;;;;;;4951074;29;20031;-81
2022/06/10 08:46:16;;;;;;;2.03;1.13;;;20.10;61.80;;;;;;4936009;29;20078;-79
2022/06/10 08:49:10;;;;;;;1.40;0.98;;;20.10;61.70;;;;;;4935844;29;20507;-81
2022/06/10 08:51:58;;;;;;;2.20;1.05;;;20.20;61.90;;;;;;4952462;29;20039;-82
2022/06/10 08:54:54;;;;;;;1.52;1.17;;;20.30;61.90;;;;;;4936101;29;20038;-81
2022/06/10 08:57:32;;;;;;;2.55;1.10;;;20.30;61.90;;;;;;4951863;29;20051;-82
2022/06/10 09:00:00;;;;;;;1.05;0.70;;;20.40;61.80;;;;;;4936868;29;20028;-81
2022/06/10 09:02:49;;;;;;;1.35;1.08;;;20.50;61.90;;;;;;4935594;29;20034;-81
2022/06/10 09:05:21;;;;;;;2.20;1.45;;;20.50;61.90;;;;;;4935707;29;20027;-81
2022/06/10 09:07:52;;;;;;;3.38;1.05;;;20.70;62.30;;;;;;4921300;29;20123;-85
2022/06/10 09:10:47;;;;;;;3.20;1.38;;;20.80;62.30;;;;;;4936950;29;20027;-82
2022/06/10 09:13:22;;;;;;;;;;;20.90;62.40;;;;;;4953480;29;20051;-87
2022/06/10 09:15:59;;;;;;;1.80;1.10;;;21.00;61.90;;;;;;4956370;29;19911;-86
2022/06/10 09:18:36;;;;;;;1.67;1.08;;;21.10;61.90;;;;;;4940996;29;20035;-85
2022/06/10 09:21:16;;;;;;;2.08;1.20;;;21.10;62.00;;;;;;4941397;29;20043;-87
2022/06/10 09:23:44;;;;;;;2.30;1.20;;;21.20;62.00;;;;;;4941642;29;20484;-86
2022/06/10 09:26:30;;;;;;;2.00;1.20;;;21.30;61.80;;;;;;4940253;29;20024;-87
2022/06/10 09:28:57;;;;;;;0.98;0.95;;;21.40;61.90;;;;;;4939207;29;20028;-88
2022/06/10 09:31:37;;;;;;;1.73;1.10;;;21.50;61.60;;;;;;4924987;29;20136;-85
2022/06/10 09:34:06;;;;;;;2.38;1.15;;;21.60;61.70;;;;;;4940509;29;20032;-87
2022/06/10 09:36:42;;;;;;;1.83;1.13;;;21.70;61.50;;;;;;4942316;29;20031;-85
2022/06/10 09:40:36;;;;;;;0.90;0.80;;;21.80;61.50;;;;;;4944219;29;20456;-87
2022/06/10 09:42:06;;;;;;;2.67;1.30;;;21.90;61.40;;;;;;4947349;29;20141;-86
2022/06/10 09:44:40;;;;;;;2.65;1.10;;;22.00;61.30;;;;;;4959063;29;20031;-86
2022/06/10 09:47:22;;;;;;;2.05;1.30;;;22.10;61.30;;;;;;4941811;29;20083;-87
2022/06/10 09:50:20;;;;;;;1.80;1.13;;;22.10;61.10;;;;;;4957061;29;20034;-82
2022/06/10 09:53:04;;;;;;;1.63;1.20;;;22.20;61.10;;;;;;4942584;28;20031;-84
2022/06/10 09:55:57;;;;;;;2.10;1.20;;;22.30;61.00;;;;;;4939676;29;20028;-80
2022/06/10 09:58:37;;;;;;;2.25;1.02;;;22.40;60.90;;;;;;4922064;29;20034;-81
2022/06/10 10:01:18;;;;;;;1.98;1.15;;;22.40;60.70;;;;;;4940524;29;20064;-80
2022/06/10 10:04:16;;;;;;;1.33;1.00;;;22.60;60.70;;;;;;4943677;29;20051;-82
2022/06/10 10:06:46;;;;;;;1.40;0.90;;;22.60;60.70;;;;;;4917109;29;20039;-82
2022/06/10 10:09:28;;;;;;;1.75;1.13;;;22.70;60.50;;;;;;4943470;29;20118;-82
2022/06/10 10:12:03;;;;;;;1.77;1.00;;;22.80;60.50;;;;;;4941205;29;20075;-83
2022/06/10 10:14:32;;;;;;;;;;;22.90;60.50;;;;;;4939425;29;20056;-83
2022/06/10 10:17:00;;;;;;;1.17;0.88;;;23.00;60.40;;;;;;4954156;29;20068;-83
2022/06/10 10:19:32;;;;;;;1.67;0.98;;;23.00;60.10;;;;;;4945505;29;20028;-84
2022/06/10 10:22:27;;;;;;;1.33;1.00;;;23.10;60.20;;;;;;4952910;29;20028;-84
2022/06/10 10:24:54;;;;;;;1.52;1.08;;;23.10;60.20;;;;;;4919730;29;20040;-85
2022/06/10 10:27:33;;;;;;;2.17;1.00;;;23.20;60.00;;;;;;4934764;29;20044;-81
2022/06/10 10:30:20;;;;;;;1.50;0.82;;;23.30;60.20;;;;;;4953454;29;20099;-84
2022/06/10 10:32:55;;;;;;;1.85;1.00;;;23.30;60.10;;;;;;4953195;29;20023;-86
2022/06/10 10:35:32;;;;;;;2.25;1.02;;;23.40;60.10;;;;;;4946334;29;20031;-81
2022/06/10 10:38:00;;;;;;;1.05;0.90;;;23.50;60.10;;;;;;4945827;29;20050;-84
2022/06/10 10:40:37;;;;;;;2.20;1.20;;;23.60;60.00;;;;;;4938570;29;20026;-81
2022/06/10 10:43:09;;;;;;;0.85;0.85;;;23.60;59.90;;;;;;4937928;29;20040;-83
2022/06/10 10:45:38;;;;;;;1.35;0.90;;;23.70;59.90;;;;;;4939306;29;20057;-84
2022/06/10 10:48:25;;;;;;;1.58;0.93;;;23.80;59.80;;;;;;4938410;29;20035;-83
2022/06/10 10:50:55;;;;;;;1.73;0.90;;;23.80;59.80;;;;;;4941036;29;20123;-89
2022/06/10 10:53:36;;;;;;;1.70;1.15;;;23.90;59.60;;;;;;4947687;29;20028;-86
2022/06/10 10:56:04;;;;;;;1.35;0.98;;;24.00;59.50;;;;;;4939754;29;20020;-87
2022/06/10 10:58:35;;;;;;;1.27;0.90;;;24.00;59.40;;;;;;4941389;29;20024;-91
2022/06/10 11:01:43;;;;;;;1.23;0.90;;;24.10;59.40;;;;;;4940368;29;20094;-84
2022/06/10 11:03:56;;;;;;;1.15;0.80;;;24.10;59.30;;;;;;4938767;29;20062;-84
2022/06/10 11:06:28;;;;;;;1.05;0.95;;;24.20;59.20;;;;;;4954850;28;20396;-86
2022/06/10 11:09:16;;;;;;;0.95;0.93;;;24.30;59.20;;;;;;4939184;29;20035;-83
2022/06/10 11:11:43;;;;;;;2.28;1.10;;;24.30;59.10;;;;;;4922646;29;20050;-81
2022/06/10 11:14:21;;;;;;;2.42;1.30;;;24.40;59.10;;;;;;4940143;28;20083;-84
2022/06/10 11:17:11;;;;;;;1.80;0.90;;;24.50;59.10;;;;;;4942694;29;20039;-86
2022/06/10 11:19:37;;;;;;;1.20;0.90;;;24.50;59.10;;;;;;4952970;29;20042;-80
2022/06/10 11:22:21;;;;;;;2.22;1.00;;;24.60;58.90;;;;;;4952206;29;20031;-80
2022/06/10 11:24:51;;;;;;;2.28;1.13;;;24.60;58.90;;;;;;4937107;29;20032;-80
2022/06/10 11:27:32;;;;;;;2.03;1.13;;;24.70;58.90;;;;;;4953426;28;20032;-83
2022/06/10 11:30:10;;;;;;;3.55;1.48;;;24.70;58.80;;;;;;4940164;29;20044;-84
2022/06/10 11:32:48;;;;;;;1.58;1.00;;;24.70;58.70;;;;;;4940595;29;20027;-86
2022/06/10 11:35:31;;;;;;;1.77;1.05;;;24.80;58.70;;;;;;4941879;29;20091;-84
2022/06/10 11:38:16;;;;;;;2.13;1.08;;;24.80;58.70;;;;;;4955066;28;20032;-80
2022/06/10 11:40:53;;;;;;;1.92;1.27;;;24.80;58.70;;;;;;4955521;29;20139;-81
2022/06/10 11:43:25;;;;;;;1.50;0.98;;;24.90;58.60;;;;;;4938386;29;20035;-83
2022/06/10 11:46:18;;;;;;;1.73;1.00;;;24.90;58.50;;;;;;4938458;29;20110;-81
2022/06/10 11:49:22;;;;;;;1.92;1.02;;;24.90;58.60;;;;;;4939033;29;20032;-83
2022/06/10 11:52:13;;;;;;;1.85;1.10;;;24.90;58.40;;;;;;4916726;29;20047;-82
2022/06/10 11:54:55;;;;;;;1.17;1.00;;;25.00;58.40;;;;;;4892394;29;20036;-84
2022/06/10 12:00:41;;;;;;;2.08;1.20;;;25.00;58.40;;;;;;4952815;29;20024;-81
2022/06/10 12:03:14;;;;;;;1.88;1.00;;;25.00;58.30;;;;;;4938800;29;20095;-82
2022/06/10 12:06:06;;;;;;;1.83;1.13;;;25.10;58.30;;;;;;4937550;29;20471;-82
2022/06/10 12:08:50;;;;;;;2.13;0.93;;;25.10;58.50;;;;;;4953759;29;20034;-83
2022/06/10 12:11:45;;;;;;;1.88;1.00;;;25.10;58.40;;;;;;4955157;29;20042;-84
2022/06/10 12:14:34;;;;;;;1.83;1.20;;;25.10;58.40;;;;;;4939737;29;20032;-85
2022/06/10 12:17:24;;;;;;;1.25;0.88;;;25.20;58.50;;;;;;4939775;29;20028;-83
2022/06/10 12:20:20;;;;;;;2.10;1.10;;;25.20;58.40;;;;;;4955136;29;20032;-84
2022/06/10 12:22:46;;;;;;;2.28;0.90;;;25.20;58.50;;;;;;4943093;29;20047;-83
2022/06/10 12:25:22;;;;;;;1.02;0.95;;;25.20;58.40;;;;;;4959663;29;20087;-79
2022/06/10 12:28:14;;;;;;;1.73;1.00;;;25.30;58.40;;;;;;4950636;29;20035;-80
2022/06/10 12:30:46;;;;;;;1.23;1.00;;;25.30;58.40;;;;;;4948356;29;20056;-84
2022/06/10 12:33:24;;;;;;;1.95;1.10;;;25.30;58.30;;;;;;4951885;29;20043;-79
2022/06/10 12:35:54;;;;;;;1.83;1.30;;;25.30;58.30;;;;;;4963534;29;20020;-85
2022/06/10 12:38:27;;;;;;;2.50;1.33;;;25.40;58.30;;;;;;4946264;29;20032;-83
2022/06/10 12:40:55;;;;;;;1.98;1.08;;;25.40;58.30;;;;;;4940446;29;20032;-83
2022/06/10 12:43:29;;;;;;;1.15;1.00;;;25.40;58.30;;;;;;4956604;29;20043;-84
2022/06/10 12:46:03;;;;;;;1.98;1.27;;;25.40;58.20;;;;;;4938588;29;20600;-83
2022/06/10 12:48:50;;;;;;;2.45;1.25;;;25.50;58.30;;;;;;4938335;29;20118;-84
2022/06/10 12:51:34;;;;;;;2.22;1.10;;;25.50;58.20;;;;;;4942619;29;20055;-82
2022/06/10 12:54:23;;;;;;;2.20;1.17;;;25.50;58.20;;;;;;4944140;29;20087;-85
2022/06/10 12:56:49;;;;;;;1.80;1.30;;;25.50;58.30;;;;;;4943419;29;20036;-84
2022/06/10 12:59:24;;;;;;;3.25;1.23;;;25.60;58.10;;;;;;4942467;29;20023;-83
2022/06/10 13:01:52;;;;;;;2.63;1.13;;;25.60;58.10;;;;;;4942527;29;20086;-84
2022/06/10 13:04:20;;;;;;;1.63;1.10;;;25.60;58.10;;;;;;4926757;29;20047;-85
2022/06/10 13:07:23;;;;;;;1.90;1.20;;;25.70;58.20;;;;;;4943532;29;20031;-83
2022/06/10 13:09:49;;;;;;;2.03;1.20;;;25.70;58.20;;;;;;4959734;29;20060;-85
2022/06/10 13:12:20;;;;;;;2.25;1.17;;;25.70;58.00;;;;;;4925959;29;20087;-84
2022/06/10 13:15:21;;;;;;;2.72;1.05;;;25.70;58.00;;;;;;4957738;29;20034;-80
2022/06/10 13:17:55;;;;;;;2.20;1.27;;;25.80;58.00;;;;;;4924559;29;20044;-81
2022/06/10 13:20:22;;;;;;;2.95;1.40;;;25.80;57.90;;;;;;4958322;28;20103;-85
2022/06/10 13:23:08;;;;;;;1.33;1.10;;;25.80;57.90;;;;;;4945801;29;20050;-85
2022/06/10 13:25:33;;;;;;;1.95;1.20;;;25.80;58.00;;;;;;4959102;28;20491;-80
2022/06/10 13:27:59;;;;;;;2.30;1.20;;;25.80;57.80;;;;;;4929863;29;20110;-85
2022/06/10 13:30:29;;;;;;;1.55;1.20;;;25.90;57.80;;;;;;4931586;29;20473;-84
2022/06/10 13:33:01;;;;;;;2.97;1.20;;;25.90;58.50;;;;;;4959265;29;20465;-85
2022/06/10 13:35:32;;;;;;;2.25;1.30;;;25.90;57.80;;;;;;4957758;29;20519;-83